sensor_id;sensor_type;location;lat;lon;timestamp;pressure;altitude;pressure_sealevel;temperature;humidity
13594;BME280;6449;47.666;9.160;2023-02-11T00:01:35;99042.78;;;-1.61;100.00
13594;BME280;6449;47.666;9.160;2023-02-11T00:06:33;99056.41;;;-1.73;100.00
13594;BME280;6449;47.666;9.160;2023-02-11T00:11:27;99055.47;;;-1.86;100.00
13594;BME280;6449;47.666;9.160;2023-02-11T00:16:22;99046.97;;;-1.75;100.00
13594;BME280;6449;47.666;9.160;2023-02-11T00:21:18;99042.66;;;-1.81;100.00
13594;BME280;6449;47.666;9.160;2023-02-11T00:26:15;99041.63;;;-1.98;100.00
13594;BME280;6449;47.666;9.160;2023-02-11T00:31:13;99042.50;;;-1.96;100.00
13594;BME280;6449;47.666;9.160;2023-02-11T00:36:12;99028.88;;;-1.86;100.00
13594;BME280;6449;47.666;9.160;2023-02-11T00:41:06;99028.97;;;-1.71;100.00
13594;BME280;6449;47.666;9.160;2023-02-11T00:46:03;99033.13;;;-1.88;100.00
13594;BME280;6449;47.666;9.160;2023-02-11T00:51:00;99016.13;;;-1.72;100.00
13594;BME280;6449;47.666;9.160;2023-02-11T00:55:55;99022.09;;;-1.76;100.00
13594;BME280;6449;47.666;9.160;2023-02-11T01:00:48;99011.81;;;-1.76;100.00
13594;BME280;6449;47.666;9.160;2023-02-11T01:05:43;99008.41;;;-1.74;100.00
13594;BME280;6449;47.666;9.160;2023-02-11T01:10:37;99008.25;;;-1.94;100.00
13594;BME280;6449;47.666;9.160;2023-02-11T01:15:35;99004.78;;;-2.00;100.00
13594;BME280;6449;47.666;9.160;2023-02-11T01:20:28;98998.56;;;-2.27;100.00
13594;BME280;6449;47.666;9.160;2023-02-11T01:25:26;98988.47;;;-2.05;100.00
13594;BME280;6449;47.666;9.160;2023-02-11T01:30:22;98989.41;;;-1.93;100.00
13594;BME280;6449;47.666;9.160;2023-02-11T01:35:19;98982.59;;;-1.88;100.00
13594;BME280;6449;47.666;9.160;2023-02-11T01:40:18;98970.66;;;-1.78;100.00
13594;BME280;6449;47.666;9.160;2023-02-11T01:45:54;98994.47;;;-2.05;100.00
13594;BME280;6449;47.666;9.160;2023-02-11T01:50:55;98980.03;;;-1.89;100.00
13594;BME280;6449;47.666;9.160;2023-02-11T01:55:50;98996.78;;;-2.32;100.00
13594;BME280;6449;47.666;9.160;2023-02-11T02:01:18;98995.94;;;-2.33;100.00
13594;BME280;6449;47.666;9.160;2023-02-11T02:06:32;98983.84;;;-2.45;100.00
13594;BME280;6449;47.666;9.160;2023-02-11T02:11:35;98980.56;;;-2.27;100.00
13594;BME280;6449;47.666;9.160;2023-02-11T02:16:43;98975.63;;;-2.07;100.00
13594;BME280;6449;47.666;9.160;2023-02-11T02:27:48;98974.63;;;-2.21;100.00
13594;BME280;6449;47.666;9.160;2023-02-11T02:33:10;98977.19;;;-2.20;100.00
13594;BME280;6449;47.666;9.160;2023-02-11T02:38:24;98971.81;;;-2.47;100.00
13594;BME280;6449;47.666;9.160;2023-02-11T02:43:27;98970.13;;;-2.45;100.00
13594;BME280;6449;47.666;9.160;2023-02-11T02:48:33;98970.16;;;-2.44;100.00
13594;BME280;6449;47.666;9.160;2023-02-11T02:53:42;98969.44;;;-2.24;100.00
13594;BME280;6449;47.666;9.160;2023-02-11T02:59:23;98942.22;;;-2.04;100.00
13594;BME280;6449;47.666;9.160;2023-02-11T03:04:34;98956.81;;;-2.01;100.00
13594;BME280;6449;47.666;9.160;2023-02-11T03:09:41;98951.59;;;-2.11;100.00
13594;BME280;6449;47.666;9.160;2023-02-11T03:14:50;98938.66;;;-2.23;100.00
13594;BME280;6449;47.666;9.160;2023-02-11T03:20:08;98930.72;;;-2.50;100.00
13594;BME280;6449;47.666;9.160;2023-02-11T03:25:09;98930.66;;;-2.58;100.00
13594;BME280;6449;47.666;9.160;2023-02-11T03:30:13;98931.69;;;-2.38;100.00
13594;BME280;6449;47.666;9.160;2023-02-11T03:35:21;98936.03;;;-2.29;100.00
13594;BME280;6449;47.666;9.160;2023-02-11T03:40:28;98919.88;;;-2.16;100.00
13594;BME280;6449;47.666;9.160;2023-02-11T03:45:28;98918.22;;;-2.06;100.00
13594;BME280;6449;47.666;9.160;2023-02-11T03:50:34;98913.06;;;-2.09;100.00
13594;BME280;6449;47.666;9.160;2023-02-11T04:01:33;98910.09;;;-2.56;100.00
13594;BME280;6449;47.666;9.160;2023-02-11T04:06:37;98896.47;;;-2.52;100.00
13594;BME280;6449;47.666;9.160;2023-02-11T04:11:34;98901.75;;;-2.34;100.00
13594;BME280;6449;47.666;9.160;2023-02-11T04:16:40;98908.69;;;-2.21;100.00
13594;BME280;6449;47.666;9.160;2023-02-11T04:21:59;98907.00;;;-2.19;100.00
13594;BME280;6449;47.666;9.160;2023-02-11T04:27:06;98904.50;;;-2.13;100.00
13594;BME280;6449;47.666;9.160;2023-02-11T04:32:26;98909.63;;;-2.09;100.00
13594;BME280;6449;47.666;9.160;2023-02-11T04:37:47;98913.78;;;-2.27;100.00
13594;BME280;6449;47.666;9.160;2023-02-11T04:42:49;98923.66;;;-2.74;100.00
13594;BME280;6449;47.666;9.160;2023-02-11T04:48:01;98925.56;;;-2.53;100.00
13594;BME280;6449;47.666;9.160;2023-02-11T04:52:59;98934.97;;;-2.54;100.00
13594;BME280;6449;47.666;9.160;2023-02-11T04:58:01;98937.53;;;-2.55;100.00
13594;BME280;6449;47.666;9.160;2023-02-11T05:03:13;98943.38;;;-2.70;100.00
13594;BME280;6449;47.666;9.160;2023-02-11T05:08:20;98940.06;;;-2.60;100.00
13594;BME280;6449;47.666;9.160;2023-02-11T05:13:26;98949.53;;;-2.51;100.00
13594;BME280;6449;47.666;9.160;2023-02-11T05:18:42;98958.13;;;-2.49;100.00
13594;BME280;6449;47.666;9.160;2023-02-11T05:43:57;98973.31;;;-2.71;100.00
13594;BME280;6449;47.666;9.160;2023-02-11T05:49:33;98969.03;;;-2.70;100.00
13594;BME280;6449;47.666;9.160;2023-02-11T05:55:35;98973.09;;;-2.92;100.00
13594;BME280;6449;47.666;9.160;2023-02-11T06:01:30;98980.91;;;-2.78;100.00
13594;BME280;6449;47.666;9.160;2023-02-11T06:06:55;98975.13;;;-2.60;100.00
13594;BME280;6449;47.666;9.160;2023-02-11T06:12:05;98972.00;;;-2.29;100.00
13594;BME280;6449;47.666;9.160;2023-02-11T06:17:25;98965.13;;;-2.33;100.00
13594;BME280;6449;47.666;9.160;2023-02-11T06:23:15;98949.66;;;-2.34;100.00
13594;BME280;6449;47.666;9.160;2023-02-11T06:28:37;98946.94;;;-2.53;100.00
13594;BME280;6449;47.666;9.160;2023-02-11T06:33:56;98947.03;;;-2.44;100.00
13594;BME280;6449;47.666;9.160;2023-02-11T06:39:05;98947.00;;;-2.47;100.00
13594;BME280;6449;47.666;9.160;2023-02-11T06:45:08;98936.81;;;-2.38;100.00
13594;BME280;6449;47.666;9.160;2023-02-11T06:50:26;98908.53;;;-2.42;100.00
13594;BME280;6449;47.666;9.160;2023-02-11T06:56:29;98905.19;;;-2.32;100.00
13594;BME280;6449;47.666;9.160;2023-02-11T07:02:25;98896.59;;;-2.37;100.00
13594;BME280;6449;47.666;9.160;2023-02-11T07:08:24;98880.31;;;-2.38;100.00
13594;BME280;6449;47.666;9.160;2023-02-11T07:13:56;98878.50;;;-2.52;100.00
13594;BME280;6449;47.666;9.160;2023-02-11T07:19:56;98897.97;;;-2.73;100.00
13594;BME280;6449;47.666;9.160;2023-02-11T07:31:24;98912.09;;;-2.25;100.00
13594;BME280;6449;47.666;9.160;2023-02-11T07:36:37;98909.63;;;-2.09;100.00
13594;BME280;6449;47.666;9.160;2023-02-11T07:47:15;98882.44;;;-1.71;100.00
13594;BME280;6449;47.666;9.160;2023-02-11T07:52:30;98872.16;;;-1.74;100.00
13594;BME280;6449;47.666;9.160;2023-02-11T07:58:15;98919.16;;;-1.96;100.00
13594;BME280;6449;47.666;9.160;2023-02-11T08:03:51;98946.66;;;-1.86;100.00
13594;BME280;6449;47.666;9.160;2023-02-11T08:09:33;98946.81;;;-1.57;100.00
13594;BME280;6449;47.666;9.160;2023-02-11T08:14:51;98950.34;;;-1.35;100.00
13594;BME280;6449;47.666;9.160;2023-02-11T08:20:11;98955.59;;;-1.14;100.00
13594;BME280;6449;47.666;9.160;2023-02-11T08:25:21;98955.63;;;-1.04;100.00
13594;BME280;6449;47.666;9.160;2023-02-11T08:30:33;98959.06;;;-1.04;100.00
13594;BME280;6449;47.666;9.160;2023-02-11T08:35:58;98951.38;;;-0.87;100.00
13594;BME280;6449;47.666;9.160;2023-02-11T08:41:10;98954.88;;;-0.73;100.00
13594;BME280;6449;47.666;9.160;2023-02-11T08:46:13;98950.56;;;-0.66;100.00
13594;BME280;6449;47.666;9.160;2023-02-11T08:51:19;98945.44;;;-0.60;100.00
13594;BME280;6449;47.666;9.160;2023-02-11T08:56:54;98930.84;;;-0.50;100.00
13594;BME280;6449;47.666;9.160;2023-02-11T09:01:53;98929.13;;;-0.48;100.00
13594;BME280;6449;47.666;9.160;2023-02-11T09:06:53;98937.75;;;-0.40;100.00
13594;BME280;6449;47.666;9.160;2023-02-11T09:11:53;98924.84;;;-0.22;100.00
13594;BME280;6449;47.666;9.160;2023-02-11T09:16:56;98911.97;;;-0.13;100.00
13594;BME280;6449;47.666;9.160;2023-02-11T09:21:52;98899.06;;;0.12;100.00
13594;BME280;6449;47.666;9.160;2023-02-11T09:26:48;98874.09;;;0.15;100.00
13594;BME280;6449;47.666;9.160;2023-02-11T09:31:50;98885.31;;;0.04;100.00
13594;BME280;6449;47.666;9.160;2023-02-11T09:36:45;98870.69;;;0.09;100.00
13594;BME280;6449;47.666;9.160;2023-02-11T09:42:13;98859.50;;;0.19;100.00
13594;BME280;6449;47.666;9.160;2023-02-11T09:47:24;98873.19;;;0.36;100.00
13594;BME280;6449;47.666;9.160;2023-02-11T09:52:34;98879.19;;;0.37;100.00
13594;BME280;6449;47.666;9.160;2023-02-11T09:57:34;98902.38;;;0.50;100.00
13594;BME280;6449;47.666;9.160;2023-02-11T10:03:21;98904.94;;;0.57;100.00
13594;BME280;6449;47.666;9.160;2023-02-11T10:08:40;98902.31;;;0.69;100.00
13594;BME280;6449;47.666;9.160;2023-02-11T10:13:48;98909.16;;;0.77;100.00
13594;BME280;6449;47.666;9.160;2023-02-11T10:19:08;98915.94;;;0.95;100.00
13594;BME280;6449;47.666;9.160;2023-02-11T10:24:13;98909.06;;;1.02;100.00
13594;BME280;6449;47.666;9.160;2023-02-11T10:29:40;98920.22;;;1.05;100.00
13594;BME280;6449;47.666;9.160;2023-02-11T10:34:40;98905.53;;;1.18;100.00
13594;BME280;6449;47.666;9.160;2023-02-11T10:39:41;98906.34;;;1.22;100.00
13594;BME280;6449;47.666;9.160;2023-02-11T10:44:38;98906.41;;;1.14;100.00
13594;BME280;6449;47.666;9.160;2023-02-11T10:49:38;98896.97;;;1.04;100.00
13594;BME280;6449;47.666;9.160;2023-02-11T10:54:32;98887.53;;;1.00;100.00
13594;BME280;6449;47.666;9.160;2023-02-11T10:59:30;98884.88;;;1.14;100.00
13594;BME280;6449;47.666;9.160;2023-02-11T11:04:38;98889.06;;;1.30;100.00
13594;BME280;6449;47.666;9.160;2023-02-11T11:15:24;98904.59;;;1.28;100.00
13594;BME280;6449;47.666;9.160;2023-02-11T11:26:23;98886.34;;;1.48;100.00
13594;BME280;6449;47.666;9.160;2023-02-11T12:07:57;98876.22;;;2.22;100.00
13594;BME280;6449;47.666;9.160;2023-02-11T12:13:08;98866.47;;;2.44;100.00
13594;BME280;6449;47.666;9.160;2023-02-11T12:18:32;98853.25;;;2.69;100.00
13594;BME280;6449;47.666;9.160;2023-02-11T12:23:54;98857.47;;;2.77;100.00
13594;BME280;6449;47.666;9.160;2023-02-11T12:29:08;98856.41;;;2.91;100.00
13594;BME280;6449;47.666;9.160;2023-02-11T12:39:45;98850.66;;;3.30;100.00
13594;BME280;6449;47.666;9.160;2023-02-11T12:45:08;98849.53;;;3.45;100.00
13594;BME280;6449;47.666;9.160;2023-02-11T13:05:33;98818.03;;;4.17;100.00
13594;BME280;6449;47.666;9.160;2023-02-11T13:15:35;98808.94;;;3.95;100.00
13594;BME280;6449;47.666;9.160;2023-02-11T13:20:41;98809.50;;;4.11;100.00
13594;BME280;6449;47.666;9.160;2023-02-11T13:25:45;98801.06;;;4.43;100.00
13594;BME280;6449;47.666;9.160;2023-02-11T13:30:41;98792.31;;;4.47;100.00
13594;BME280;6449;47.666;9.160;2023-02-11T13:56:23;98749.44;;;5.05;100.00
13594;BME280;6449;47.666;9.160;2023-02-11T14:06:27;98744.03;;;5.14;100.00
13594;BME280;6449;47.666;9.160;2023-02-11T14:12:33;98744.41;;;5.35;100.00
13594;BME280;6449;47.666;9.160;2023-02-11T14:17:30;98740.19;;;5.63;100.00
13594;BME280;6449;47.666;9.160;2023-02-11T14:22:28;98742.88;;;5.60;100.00
13594;BME280;6449;47.666;9.160;2023-02-11T14:27:40;98738.50;;;5.62;100.00
13594;BME280;6449;47.666;9.160;2023-02-11T14:52:59;98745.03;;;4.71;100.00
13594;BME280;6449;47.666;9.160;2023-02-11T14:58:06;98752.97;;;4.65;100.00
13594;BME280;6449;47.666;9.160;2023-02-11T15:02:59;98755.56;;;4.65;100.00
13594;BME280;6449;47.666;9.160;2023-02-11T15:07:57;98750.03;;;4.40;100.00
13594;BME280;6449;47.666;9.160;2023-02-11T16:09:32;98763.81;;;3.56;100.00
13594;BME280;6449;47.666;9.160;2023-02-11T16:14:34;98763.78;;;3.57;100.00
13594;BME280;6449;47.666;9.160;2023-02-11T16:19:33;98760.28;;;3.60;100.00
13594;BME280;6449;47.666;9.160;2023-02-11T16:24:32;98764.66;;;3.56;100.00
13594;BME280;6449;47.666;9.160;2023-02-11T16:49:56;98751.88;;;3.47;100.00
13594;BME280;6449;47.666;9.160;2023-02-11T17:51:38;98788.66;;;1.86;100.00
13594;BME280;6449;47.666;9.160;2023-02-11T17:56:35;98794.75;;;1.80;100.00
13594;BME280;6449;47.666;9.160;2023-02-11T18:01:32;98796.56;;;1.72;100.00
13594;BME280;6449;47.666;9.160;2023-02-11T18:06:26;98806.97;;;1.66;100.00
13594;BME280;6449;47.666;9.160;2023-02-11T18:11:22;98810.41;;;1.65;100.00
13594;BME280;6449;47.666;9.160;2023-02-11T18:16:19;98811.34;;;1.57;100.00
13594;BME280;6449;47.666;9.160;2023-02-11T18:21:19;98820.91;;;1.43;100.00
13594;BME280;6449;47.666;9.160;2023-02-11T18:26:15;98811.50;;;1.38;100.00
13594;BME280;6449;47.666;9.160;2023-02-11T19:01:55;98852.28;;;0.97;100.00
13594;BME280;6449;47.666;9.160;2023-02-11T19:11:56;98860.84;;;0.99;100.00
13594;BME280;6449;47.666;9.160;2023-02-11T19:17:06;98866.00;;;0.99;100.00
13594;BME280;6449;47.666;9.160;2023-02-11T19:22:10;98864.34;;;0.92;100.00
13594;BME280;6449;47.666;9.160;2023-02-11T19:53:09;98861.91;;;0.62;100.00
13594;BME280;6449;47.666;9.160;2023-02-11T19:58:03;98858.47;;;0.66;100.00
13594;BME280;6449;47.666;9.160;2023-02-11T20:02:56;98871.34;;;0.63;100.00
13594;BME280;6449;47.666;9.160;2023-02-11T20:07:49;98884.28;;;0.61;100.00
13594;BME280;6449;47.666;9.160;2023-02-11T21:54:52;98892.22;;;-0.09;100.00
13594;BME280;6449;47.666;9.160;2023-02-11T22:10:01;98887.03;;;-0.08;100.00
